sensor_id;sensor_type;location;lat;lon;timestamp;P1;durP1;ratioP1;P2;durP2;ratioP2
66371;SDS011;53168;51.146;17.120;2023-07-29T00:01:20;5.80;;;5.80;;
66371;SDS011;53168;51.146;17.120;2023-07-29T00:03:53;5.41;;;5.41;;
66371;SDS011;53168;51.146;17.120;2023-07-29T00:06:27;5.70;;;5.70;;
66371;SDS011;53168;51.146;17.120;2023-07-29T00:09:01;5.56;;;5.56;;
66371;SDS011;53168;51.146;17.120;2023-07-29T00:11:36;5.51;;;5.51;;
66371;SDS011;53168;51.146;17.120;2023-07-29T00:14:09;5.89;;;5.89;;
66371;SDS011;53168;51.146;17.120;2023-07-29T00:16:43;5.62;;;5.62;;
66371;SDS011;53168;51.146;17.120;2023-07-29T00:19:17;5.75;;;5.75;;
66371;SDS011;53168;51.146;17.120;2023-07-29T00:22:21;5.64;;;5.64;;
66371;SDS011;53168;51.146;17.120;2023-07-29T00:24:55;5.62;;;5.62;;
66371;SDS011;53168;51.146;17.120;2023-07-29T00:27:28;5.52;;;5.52;;
66371;SDS011;53168;51.146;17.120;2023-07-29T00:30:02;5.58;;;5.58;;
66371;SDS011;53168;51.146;17.120;2023-07-29T00:32:38;6.07;;;6.07;;
66371;SDS011;53168;51.146;17.120;2023-07-29T00:35:14;5.55;;;5.55;;
66371;SDS011;53168;51.146;17.120;2023-07-29T00:37:48;5.51;;;5.51;;
66371;SDS011;53168;51.146;17.120;2023-07-29T00:40:22;5.41;;;5.41;;
66371;SDS011;53168;51.146;17.120;2023-07-29T00:42:58;5.87;;;5.87;;
66371;SDS011;53168;51.146;17.120;2023-07-29T00:45:32;6.00;;;6.00;;
66371;SDS011;53168;51.146;17.120;2023-07-29T00:48:08;5.46;;;5.46;;
66371;SDS011;53168;51.146;17.120;2023-07-29T00:50:43;5.68;;;5.68;;
66371;SDS011;53168;51.146;17.120;2023-07-29T00:53:16;5.69;;;5.69;;
66371;SDS011;53168;51.146;17.120;2023-07-29T00:55:51;5.63;;;5.63;;
66371;SDS011;53168;51.146;17.120;2023-07-29T00:58:25;5.63;;;5.63;;
66371;SDS011;53168;51.146;17.120;2023-07-29T01:01:00;5.52;;;5.52;;
66371;SDS011;53168;51.146;17.120;2023-07-29T01:03:34;5.62;;;5.62;;
66371;SDS011;53168;51.146;17.120;2023-07-29T01:06:12;5.80;;;5.80;;
66371;SDS011;53168;51.146;17.120;2023-07-29T01:09:00;5.58;;;5.58;;
66371;SDS011;53168;51.146;17.120;2023-07-29T01:11:41;5.71;;;5.71;;
66371;SDS011;53168;51.146;17.120;2023-07-29T01:14:29;6.00;;;6.00;;
66371;SDS011;53168;51.146;17.120;2023-07-29T01:17:23;5.73;;;5.73;;
66371;SDS011;53168;51.146;17.120;2023-07-29T01:20:07;5.98;;;5.98;;
66371;SDS011;53168;51.146;17.120;2023-07-29T01:22:44;5.60;;;5.60;;
66371;SDS011;53168;51.146;17.120;2023-07-29T01:25:19;5.90;;;5.90;;
66371;SDS011;53168;51.146;17.120;2023-07-29T01:27:52;5.84;;;5.84;;
66371;SDS011;53168;51.146;17.120;2023-07-29T01:30:28;5.85;;;5.85;;
66371;SDS011;53168;51.146;17.120;2023-07-29T01:33:11;5.95;;;5.95;;
66371;SDS011;53168;51.146;17.120;2023-07-29T01:35:57;5.84;;;5.84;;
66371;SDS011;53168;51.146;17.120;2023-07-29T01:38:42;5.97;;;5.97;;
66371;SDS011;53168;51.146;17.120;2023-07-29T01:41:22;5.66;;;5.66;;
66371;SDS011;53168;51.146;17.120;2023-07-29T01:43:58;6.07;;;6.07;;
66371;SDS011;53168;51.146;17.120;2023-07-29T01:46:34;5.95;;;5.95;;
66371;SDS011;53168;51.146;17.120;2023-07-29T01:49:08;6.25;;;6.25;;
66371;SDS011;53168;51.146;17.120;2023-07-29T01:51:42;5.61;;;5.61;;
66371;SDS011;53168;51.146;17.120;2023-07-29T01:54:16;6.02;;;6.02;;
66371;SDS011;53168;51.146;17.120;2023-07-29T01:56:50;5.88;;;5.88;;
66371;SDS011;53168;51.146;17.120;2023-07-29T01:59:23;5.93;;;5.93;;
66371;SDS011;53168;51.146;17.120;2023-07-29T02:01:57;5.58;;;5.58;;
66371;SDS011;53168;51.146;17.120;2023-07-29T02:04:31;5.49;;;5.49;;
66371;SDS011;53168;51.146;17.120;2023-07-29T02:07:04;6.07;;;6.07;;
66371;SDS011;53168;51.146;17.120;2023-07-29T02:09:38;6.34;;;6.34;;
66371;SDS011;53168;51.146;17.120;2023-07-29T02:12:12;6.76;;;6.76;;
66371;SDS011;53168;51.146;17.120;2023-07-29T02:14:46;6.50;;;6.50;;
66371;SDS011;53168;51.146;17.120;2023-07-29T02:17:19;6.87;;;6.87;;
66371;SDS011;53168;51.146;17.120;2023-07-29T02:19:53;6.81;;;6.81;;
66371;SDS011;53168;51.146;17.120;2023-07-29T02:22:27;6.74;;;6.74;;
66371;SDS011;53168;51.146;17.120;2023-07-29T02:25:01;7.02;;;7.02;;
66371;SDS011;53168;51.146;17.120;2023-07-29T02:27:36;6.78;;;6.78;;
66371;SDS011;53168;51.146;17.120;2023-07-29T02:30:11;7.14;;;7.14;;
66371;SDS011;53168;51.146;17.120;2023-07-29T02:32:45;6.84;;;6.84;;
66371;SDS011;53168;51.146;17.120;2023-07-29T02:35:19;6.67;;;6.67;;
66371;SDS011;53168;51.146;17.120;2023-07-29T02:37:53;6.73;;;6.73;;
66371;SDS011;53168;51.146;17.120;2023-07-29T02:40:27;6.76;;;6.76;;
66371;SDS011;53168;51.146;17.120;2023-07-29T02:43:02;6.92;;;6.92;;
66371;SDS011;53168;51.146;17.120;2023-07-29T02:45:36;6.30;;;6.30;;
66371;SDS011;53168;51.146;17.120;2023-07-29T02:48:11;6.58;;;6.58;;
66371;SDS011;53168;51.146;17.120;2023-07-29T02:50:45;6.57;;;6.57;;
66371;SDS011;53168;51.146;17.120;2023-07-29T02:53:19;6.63;;;6.63;;
66371;SDS011;53168;51.146;17.120;2023-07-29T02:55:54;6.73;;;6.73;;
66371;SDS011;53168;51.146;17.120;2023-07-29T02:58:28;6.18;;;6.18;;
66371;SDS011;53168;51.146;17.120;2023-07-29T03:01:02;6.65;;;6.65;;
66371;SDS011;53168;51.146;17.120;2023-07-29T03:03:37;6.95;;;6.95;;
66371;SDS011;53168;51.146;17.120;2023-07-29T03:06:12;6.28;;;6.28;;
66371;SDS011;53168;51.146;17.120;2023-07-29T03:08:46;6.64;;;6.64;;
66371;SDS011;53168;51.146;17.120;2023-07-29T03:11:19;6.81;;;6.81;;
66371;SDS011;53168;51.146;17.120;2023-07-29T03:13:53;6.57;;;6.57;;
66371;SDS011;53168;51.146;17.120;2023-07-29T03:16:28;7.26;;;7.26;;
66371;SDS011;53168;51.146;17.120;2023-07-29T03:19:02;6.73;;;6.73;;
66371;SDS011;53168;51.146;17.120;2023-07-29T03:21:36;6.77;;;6.77;;
66371;SDS011;53168;51.146;17.120;2023-07-29T03:24:10;7.29;;;7.29;;
66371;SDS011;53168;51.146;17.120;2023-07-29T03:26:43;7.25;;;7.25;;
66371;SDS011;53168;51.146;17.120;2023-07-29T03:29:17;6.80;;;6.80;;
66371;SDS011;53168;51.146;17.120;2023-07-29T03:31:51;7.00;;;7.00;;
66371;SDS011;53168;51.146;17.120;2023-07-29T03:34:25;7.42;;;7.42;;
66371;SDS011;53168;51.146;17.120;2023-07-29T03:36:58;7.86;;;7.86;;
66371;SDS011;53168;51.146;17.120;2023-07-29T03:39:47;6.83;;;6.83;;
66371;SDS011;53168;51.146;17.120;2023-07-29T03:42:21;6.76;;;6.76;;
66371;SDS011;53168;51.146;17.120;2023-07-29T03:44:55;7.27;;;7.27;;
66371;SDS011;53168;51.146;17.120;2023-07-29T03:47:29;7.17;;;7.17;;
66371;SDS011;53168;51.146;17.120;2023-07-29T03:50:03;7.05;;;7.05;;
66371;SDS011;53168;51.146;17.120;2023-07-29T03:52:38;6.91;;;6.91;;
66371;SDS011;53168;51.146;17.120;2023-07-29T03:55:12;6.92;;;6.92;;
66371;SDS011;53168;51.146;17.120;2023-07-29T03:57:46;7.58;;;7.58;;
66371;SDS011;53168;51.146;17.120;2023-07-29T04:00:20;7.20;;;7.20;;
66371;SDS011;53168;51.146;17.120;2023-07-29T04:02:54;6.42;;;6.42;;
66371;SDS011;53168;51.146;17.120;2023-07-29T04:05:28;6.38;;;6.38;;
66371;SDS011;53168;51.146;17.120;2023-07-29T04:08:01;6.62;;;6.62;;
66371;SDS011;53168;51.146;17.120;2023-07-29T04:10:36;6.47;;;6.47;;
66371;SDS011;53168;51.146;17.120;2023-07-29T04:13:10;6.11;;;6.11;;
66371;SDS011;53168;51.146;17.120;2023-07-29T04:15:44;6.61;;;6.61;;
66371;SDS011;53168;51.146;17.120;2023-07-29T04:18:18;6.55;;;6.55;;
66371;SDS011;53168;51.146;17.120;2023-07-29T04:20:52;6.54;;;6.54;;
66371;SDS011;53168;51.146;17.120;2023-07-29T04:23:26;6.86;;;6.86;;
66371;SDS011;53168;51.146;17.120;2023-07-29T04:26:00;7.06;;;7.06;;
66371;SDS011;53168;51.146;17.120;2023-07-29T04:28:33;7.16;;;7.16;;
66371;SDS011;53168;51.146;17.120;2023-07-29T04:31:07;7.48;;;7.48;;
66371;SDS011;53168;51.146;17.120;2023-07-29T04:33:40;7.00;;;7.00;;
66371;SDS011;53168;51.146;17.120;2023-07-29T04:36:14;7.10;;;7.10;;
66371;SDS011;53168;51.146;17.120;2023-07-29T04:38:48;7.35;;;7.35;;
66371;SDS011;53168;51.146;17.120;2023-07-29T04:41:22;7.46;;;7.46;;
66371;SDS011;53168;51.146;17.120;2023-07-29T04:43:55;7.14;;;7.14;;
66371;SDS011;53168;51.146;17.120;2023-07-29T04:46:29;6.21;;;6.21;;
66371;SDS011;53168;51.146;17.120;2023-07-29T04:49:03;7.28;;;7.28;;
66371;SDS011;53168;51.146;17.120;2023-07-29T04:51:38;7.38;;;7.38;;
66371;SDS011;53168;51.146;17.120;2023-07-29T04:54:12;6.55;;;6.55;;
66371;SDS011;53168;51.146;17.120;2023-07-29T04:56:45;6.12;;;6.12;;
66371;SDS011;53168;51.146;17.120;2023-07-29T04:59:19;6.74;;;6.74;;
66371;SDS011;53168;51.146;17.120;2023-07-29T05:01:53;6.31;;;6.31;;
66371;SDS011;53168;51.146;17.120;2023-07-29T05:04:27;6.43;;;6.43;;
66371;SDS011;53168;51.146;17.120;2023-07-29T05:07:01;6.21;;;6.21;;
66371;SDS011;53168;51.146;17.120;2023-07-29T05:09:35;6.03;;;6.03;;
66371;SDS011;53168;51.146;17.120;2023-07-29T05:12:09;6.35;;;6.35;;
66371;SDS011;53168;51.146;17.120;2023-07-29T05:14:43;6.29;;;6.29;;
66371;SDS011;53168;51.146;17.120;2023-07-29T05:17:16;6.08;;;6.08;;
66371;SDS011;53168;51.146;17.120;2023-07-29T05:19:51;5.66;;;5.66;;
66371;SDS011;53168;51.146;17.120;2023-07-29T05:22:24;5.72;;;5.72;;
66371;SDS011;53168;51.146;17.120;2023-07-29T05:24:59;6.03;;;6.03;;
66371;SDS011;53168;51.146;17.120;2023-07-29T05:27:33;6.05;;;6.05;;
66371;SDS011;53168;51.146;17.120;2023-07-29T05:30:07;5.70;;;5.70;;
66371;SDS011;53168;51.146;17.120;2023-07-29T05:32:41;5.80;;;5.80;;
66371;SDS011;53168;51.146;17.120;2023-07-29T05:35:15;6.01;;;6.01;;
66371;SDS011;53168;51.146;17.120;2023-07-29T05:37:49;6.18;;;6.18;;
66371;SDS011;53168;51.146;17.120;2023-07-29T05:40:22;5.30;;;5.30;;
66371;SDS011;53168;51.146;17.120;2023-07-29T05:42:56;4.81;;;4.81;;
66371;SDS011;53168;51.146;17.120;2023-07-29T05:45:31;5.10;;;5.10;;
66371;SDS011;53168;51.146;17.120;2023-07-29T05:48:05;5.03;;;5.03;;
66371;SDS011;53168;51.146;17.120;2023-07-29T05:50:39;4.26;;;4.26;;
66371;SDS011;53168;51.146;17.120;2023-07-29T05:53:13;4.45;;;4.45;;
66371;SDS011;53168;51.146;17.120;2023-07-29T05:55:47;4.63;;;4.63;;
66371;SDS011;53168;51.146;17.120;2023-07-29T05:58:21;4.58;;;4.58;;
66371;SDS011;53168;51.146;17.120;2023-07-29T06:00:55;4.45;;;4.45;;
66371;SDS011;53168;51.146;17.120;2023-07-29T06:03:29;4.11;;;4.11;;
66371;SDS011;53168;51.146;17.120;2023-07-29T06:06:03;4.17;;;4.17;;
66371;SDS011;53168;51.146;17.120;2023-07-29T06:08:37;4.33;;;4.33;;
66371;SDS011;53168;51.146;17.120;2023-07-29T06:11:11;4.44;;;4.44;;
66371;SDS011;53168;51.146;17.120;2023-07-29T06:13:48;4.46;;;4.46;;
66371;SDS011;53168;51.146;17.120;2023-07-29T06:16:22;4.09;;;4.09;;
66371;SDS011;53168;51.146;17.120;2023-07-29T06:18:56;3.42;;;3.42;;
66371;SDS011;53168;51.146;17.120;2023-07-29T06:21:31;3.32;;;3.32;;
66371;SDS011;53168;51.146;17.120;2023-07-29T06:24:05;3.29;;;3.29;;
66371;SDS011;53168;51.146;17.120;2023-07-29T06:26:39;2.94;;;2.94;;
66371;SDS011;53168;51.146;17.120;2023-07-29T06:29:13;2.75;;;2.75;;
66371;SDS011;53168;51.146;17.120;2023-07-29T06:31:47;2.81;;;2.81;;
66371;SDS011;53168;51.146;17.120;2023-07-29T06:34:21;2.75;;;2.75;;
66371;SDS011;53168;51.146;17.120;2023-07-29T06:36:57;2.83;;;2.83;;
66371;SDS011;53168;51.146;17.120;2023-07-29T06:39:34;2.66;;;2.66;;
66371;SDS011;53168;51.146;17.120;2023-07-29T06:42:08;2.77;;;2.77;;
66371;SDS011;53168;51.146;17.120;2023-07-29T06:44:44;2.82;;;2.82;;
66371;SDS011;53168;51.146;17.120;2023-07-29T06:47:18;2.50;;;2.50;;
66371;SDS011;53168;51.146;17.120;2023-07-29T06:49:53;2.95;;;2.95;;
66371;SDS011;53168;51.146;17.120;2023-07-29T06:52:27;2.81;;;2.81;;
66371;SDS011;53168;51.146;17.120;2023-07-29T06:55:04;2.87;;;2.87;;
66371;SDS011;53168;51.146;17.120;2023-07-29T06:57:39;2.49;;;2.49;;
66371;SDS011;53168;51.146;17.120;2023-07-29T07:00:14;2.68;;;2.68;;
66371;SDS011;53168;51.146;17.120;2023-07-29T07:02:48;2.70;;;2.70;;
66371;SDS011;53168;51.146;17.120;2023-07-29T07:08:27;2.69;;;2.69;;
66371;SDS011;53168;51.146;17.120;2023-07-29T07:11:08;2.81;;;2.81;;
66371;SDS011;53168;51.146;17.120;2023-07-29T07:13:47;2.76;;;2.76;;
66371;SDS011;53168;51.146;17.120;2023-07-29T07:16:20;2.55;;;2.55;;
66371;SDS011;53168;51.146;17.120;2023-07-29T07:18:54;2.78;;;2.78;;
66371;SDS011;53168;51.146;17.120;2023-07-29T07:21:28;2.56;;;2.56;;
66371;SDS011;53168;51.146;17.120;2023-07-29T07:24:02;3.03;;;3.03;;
66371;SDS011;53168;51.146;17.120;2023-07-29T07:26:36;2.49;;;2.49;;
66371;SDS011;53168;51.146;17.120;2023-07-29T07:29:10;2.42;;;2.42;;
66371;SDS011;53168;51.146;17.120;2023-07-29T07:31:48;3.04;;;3.04;;
66371;SDS011;53168;51.146;17.120;2023-07-29T07:34:24;2.65;;;2.65;;
66371;SDS011;53168;51.146;17.120;2023-07-29T07:36:58;2.37;;;2.37;;
66371;SDS011;53168;51.146;17.120;2023-07-29T07:39:33;2.62;;;2.62;;
66371;SDS011;53168;51.146;17.120;2023-07-29T07:42:07;2.75;;;2.75;;
66371;SDS011;53168;51.146;17.120;2023-07-29T07:44:41;2.98;;;2.98;;
66371;SDS011;53168;51.146;17.120;2023-07-29T07:47:15;2.77;;;2.77;;
66371;SDS011;53168;51.146;17.120;2023-07-29T07:49:49;3.00;;;3.00;;
66371;SDS011;53168;51.146;17.120;2023-07-29T07:52:23;2.81;;;2.81;;
66371;SDS011;53168;51.146;17.120;2023-07-29T07:54:59;2.74;;;2.74;;
66371;SDS011;53168;51.146;17.120;2023-07-29T07:57:35;4.84;;;4.84;;
66371;SDS011;53168;51.146;17.120;2023-07-29T08:00:10;2.64;;;2.64;;
66371;SDS011;53168;51.146;17.120;2023-07-29T08:02:49;2.78;;;2.78;;
66371;SDS011;53168;51.146;17.120;2023-07-29T08:05:23;3.19;;;3.19;;
66371;SDS011;53168;51.146;17.120;2023-07-29T08:07:57;3.31;;;3.31;;
66371;SDS011;53168;51.146;17.120;2023-07-29T08:10:31;2.81;;;2.81;;
66371;SDS011;53168;51.146;17.120;2023-07-29T08:13:05;3.08;;;3.08;;
66371;SDS011;53168;51.146;17.120;2023-07-29T08:15:38;2.83;;;2.83;;
66371;SDS011;53168;51.146;17.120;2023-07-29T08:18:16;2.71;;;2.71;;
66371;SDS011;53168;51.146;17.120;2023-07-29T08:20:54;3.27;;;3.27;;
66371;SDS011;53168;51.146;17.120;2023-07-29T08:23:34;2.77;;;2.77;;
66371;SDS011;53168;51.146;17.120;2023-07-29T08:26:08;2.90;;;2.90;;
66371;SDS011;53168;51.146;17.120;2023-07-29T08:28:43;2.76;;;2.76;;
66371;SDS011;53168;51.146;17.120;2023-07-29T08:35:37;2.53;;;2.53;;
66371;SDS011;53168;51.146;17.120;2023-07-29T08:38:30;2.46;;;2.46;;
66371;SDS011;53168;51.146;17.120;2023-07-29T08:41:07;2.16;;;2.16;;
66371;SDS011;53168;51.146;17.120;2023-07-29T08:50:23;2.51;;;2.51;;
66371;SDS011;53168;51.146;17.120;2023-07-29T08:52:59;2.33;;;2.33;;
66371;SDS011;53168;51.146;17.120;2023-07-29T08:55:35;2.57;;;2.57;;
66371;SDS011;53168;51.146;17.120;2023-07-29T08:58:10;2.25;;;2.25;;
66371;SDS011;53168;51.146;17.120;2023-07-29T09:00:45;2.51;;;2.51;;
66371;SDS011;53168;51.146;17.120;2023-07-29T09:03:20;2.35;;;2.35;;
66371;SDS011;53168;51.146;17.120;2023-07-29T09:05:55;2.06;;;2.06;;
66371;SDS011;53168;51.146;17.120;2023-07-29T09:08:34;1.88;;;1.88;;
66371;SDS011;53168;51.146;17.120;2023-07-29T09:11:09;2.02;;;2.02;;
66371;SDS011;53168;51.146;17.120;2023-07-29T09:13:46;2.03;;;2.03;;
66371;SDS011;53168;51.146;17.120;2023-07-29T09:16:22;1.92;;;1.92;;
66371;SDS011;53168;51.146;17.120;2023-07-29T09:18:58;1.98;;;1.98;;
66371;SDS011;53168;51.146;17.120;2023-07-29T09:21:37;1.74;;;1.74;;
66371;SDS011;53168;51.146;17.120;2023-07-29T09:24:14;2.04;;;2.04;;
66371;SDS011;53168;51.146;17.120;2023-07-29T09:26:52;1.85;;;1.85;;
66371;SDS011;53168;51.146;17.120;2023-07-29T09:29:28;1.95;;;1.95;;
66371;SDS011;53168;51.146;17.120;2023-07-29T09:32:19;1.89;;;1.89;;
66371;SDS011;53168;51.146;17.120;2023-07-29T09:34:55;1.79;;;1.79;;
66371;SDS011;53168;51.146;17.120;2023-07-29T09:37:29;1.82;;;1.82;;
66371;SDS011;53168;51.146;17.120;2023-07-29T09:40:05;2.07;;;2.07;;
66371;SDS011;53168;51.146;17.120;2023-07-29T09:42:49;1.86;;;1.86;;
66371;SDS011;53168;51.146;17.120;2023-07-29T09:45:26;1.89;;;1.89;;
66371;SDS011;53168;51.146;17.120;2023-07-29T09:48:00;1.91;;;1.91;;
66371;SDS011;53168;51.146;17.120;2023-07-29T09:50:39;1.92;;;1.92;;
66371;SDS011;53168;51.146;17.120;2023-07-29T09:53:15;2.20;;;2.20;;
66371;SDS011;53168;51.146;17.120;2023-07-29T09:55:50;2.16;;;2.16;;
66371;SDS011;53168;51.146;17.120;2023-07-29T09:58:28;1.79;;;1.79;;
66371;SDS011;53168;51.146;17.120;2023-07-29T10:01:07;1.82;;;1.82;;
66371;SDS011;53168;51.146;17.120;2023-07-29T10:03:43;1.99;;;1.99;;
66371;SDS011;53168;51.146;17.120;2023-07-29T10:06:19;2.14;;;2.14;;
66371;SDS011;53168;51.146;17.120;2023-07-29T10:08:53;1.97;;;1.97;;
66371;SDS011;53168;51.146;17.120;2023-07-29T10:11:29;1.99;;;1.99;;
66371;SDS011;53168;51.146;17.120;2023-07-29T10:14:06;2.05;;;2.05;;
66371;SDS011;53168;51.146;17.120;2023-07-29T10:16:43;2.00;;;2.00;;
66371;SDS011;53168;51.146;17.120;2023-07-29T10:19:18;2.25;;;2.25;;
66371;SDS011;53168;51.146;17.120;2023-07-29T10:21:55;2.19;;;2.19;;
66371;SDS011;53168;51.146;17.120;2023-07-29T10:24:34;2.21;;;2.21;;
66371;SDS011;53168;51.146;17.120;2023-07-29T10:27:12;2.49;;;2.49;;
66371;SDS011;53168;51.146;17.120;2023-07-29T10:29:51;2.66;;;2.66;;
66371;SDS011;53168;51.146;17.120;2023-07-29T10:32:29;2.18;;;2.18;;
66371;SDS011;53168;51.146;17.120;2023-07-29T10:35:44;2.59;;;2.59;;
66371;SDS011;53168;51.146;17.120;2023-07-29T10:38:44;2.38;;;2.38;;
66371;SDS011;53168;51.146;17.120;2023-07-29T10:44:55;3.05;;;3.05;;
66371;SDS011;53168;51.146;17.120;2023-07-29T10:51:45;3.28;;;3.28;;
66371;SDS011;53168;51.146;17.120;2023-07-29T10:54:22;3.44;;;3.44;;
66371;SDS011;53168;51.146;17.120;2023-07-29T10:57:05;3.26;;;3.26;;
66371;SDS011;53168;51.146;17.120;2023-07-29T11:02:39;3.53;;;3.53;;
66371;SDS011;53168;51.146;17.120;2023-07-29T11:05:24;3.83;;;3.83;;
66371;SDS011;53168;51.146;17.120;2023-07-29T11:08:21;3.93;;;3.93;;
66371;SDS011;53168;51.146;17.120;2023-07-29T11:11:01;3.98;;;3.98;;
66371;SDS011;53168;51.146;17.120;2023-07-29T11:13:38;3.77;;;3.77;;
66371;SDS011;53168;51.146;17.120;2023-07-29T11:16:15;4.18;;;4.18;;
66371;SDS011;53168;51.146;17.120;2023-07-29T11:18:52;3.80;;;3.80;;
66371;SDS011;53168;51.146;17.120;2023-07-29T11:21:40;4.15;;;4.15;;
66371;SDS011;53168;51.146;17.120;2023-07-29T11:24:18;3.79;;;3.79;;
66371;SDS011;53168;51.146;17.120;2023-07-29T11:26:53;3.99;;;3.99;;
66371;SDS011;53168;51.146;17.120;2023-07-29T11:29:27;3.70;;;3.70;;
66371;SDS011;53168;51.146;17.120;2023-07-29T11:32:02;3.43;;;3.43;;
66371;SDS011;53168;51.146;17.120;2023-07-29T11:34:44;3.89;;;3.89;;
66371;SDS011;53168;51.146;17.120;2023-07-29T11:39:08;3.89;;;3.89;;
66371;SDS011;53168;51.146;17.120;2023-07-29T11:42:09;3.63;;;3.63;;
66371;SDS011;53168;51.146;17.120;2023-07-29T11:46:20;3.46;;;3.46;;
66371;SDS011;53168;51.146;17.120;2023-07-29T12:00:35;3.09;;;3.09;;
66371;SDS011;53168;51.146;17.120;2023-07-29T12:03:10;3.06;;;3.06;;
66371;SDS011;53168;51.146;17.120;2023-07-29T12:05:47;3.04;;;3.04;;
66371;SDS011;53168;51.146;17.120;2023-07-29T12:08:22;2.98;;;2.98;;
66371;SDS011;53168;51.146;17.120;2023-07-29T12:25:38;2.16;;;2.16;;
66371;SDS011;53168;51.146;17.120;2023-07-29T12:28:13;1.90;;;1.90;;
66371;SDS011;53168;51.146;17.120;2023-07-29T12:30:48;1.85;;;1.85;;
66371;SDS011;53168;51.146;17.120;2023-07-29T12:33:30;1.86;;;1.86;;
66371;SDS011;53168;51.146;17.120;2023-07-29T12:36:08;2.09;;;2.09;;
66371;SDS011;53168;51.146;17.120;2023-07-29T12:38:43;1.83;;;1.83;;
66371;SDS011;53168;51.146;17.120;2023-07-29T12:41:21;1.60;;;1.60;;
66371;SDS011;53168;51.146;17.120;2023-07-29T12:44:00;1.67;;;1.67;;
66371;SDS011;53168;51.146;17.120;2023-07-29T12:46:34;1.61;;;1.61;;
66371;SDS011;53168;51.146;17.120;2023-07-29T12:49:09;1.56;;;1.56;;
66371;SDS011;53168;51.146;17.120;2023-07-29T12:51:45;1.64;;;1.64;;
66371;SDS011;53168;51.146;17.120;2023-07-29T12:54:19;1.45;;;1.45;;
66371;SDS011;53168;51.146;17.120;2023-07-29T12:56:55;1.55;;;1.55;;
66371;SDS011;53168;51.146;17.120;2023-07-29T12:59:30;1.65;;;1.65;;
66371;SDS011;53168;51.146;17.120;2023-07-29T13:02:10;1.73;;;1.73;;
66371;SDS011;53168;51.146;17.120;2023-07-29T13:04:44;1.57;;;1.57;;
66371;SDS011;53168;51.146;17.120;2023-07-29T13:07:18;1.77;;;1.77;;
66371;SDS011;53168;51.146;17.120;2023-07-29T13:09:52;2.22;;;2.22;;
66371;SDS011;53168;51.146;17.120;2023-07-29T13:12:26;2.02;;;2.02;;
66371;SDS011;53168;51.146;17.120;2023-07-29T13:15:07;1.67;;;1.67;;
66371;SDS011;53168;51.146;17.120;2023-07-29T13:18:27;2.32;;;2.32;;
66371;SDS011;53168;51.146;17.120;2023-07-29T13:21:48;1.98;;;1.98;;
66371;SDS011;53168;51.146;17.120;2023-07-29T13:25:01;1.70;;;1.70;;
66371;SDS011;53168;51.146;17.120;2023-07-29T13:27:36;1.64;;;1.64;;
66371;SDS011;53168;51.146;17.120;2023-07-29T13:30:10;1.59;;;1.59;;
66371;SDS011;53168;51.146;17.120;2023-07-29T13:32:44;1.47;;;1.47;;
66371;SDS011;53168;51.146;17.120;2023-07-29T13:35:18;1.60;;;1.60;;
66371;SDS011;53168;51.146;17.120;2023-07-29T13:37:52;1.26;;;1.26;;
66371;SDS011;53168;51.146;17.120;2023-07-29T13:40:28;1.52;;;1.52;;
66371;SDS011;53168;51.146;17.120;2023-07-29T13:43:11;1.54;;;1.54;;
66371;SDS011;53168;51.146;17.120;2023-07-29T13:46:00;1.28;;;1.28;;
66371;SDS011;53168;51.146;17.120;2023-07-29T13:48:43;1.06;;;1.06;;
66371;SDS011;53168;51.146;17.120;2023-07-29T13:51:33;1.05;;;1.05;;
66371;SDS011;53168;51.146;17.120;2023-07-29T13:54:21;1.20;;;1.20;;
66371;SDS011;53168;51.146;17.120;2023-07-29T13:57:04;1.03;;;1.03;;
66371;SDS011;53168;51.146;17.120;2023-07-29T13:59:49;1.16;;;1.16;;
66371;SDS011;53168;51.146;17.120;2023-07-29T14:05:50;1.26;;;1.26;;
66371;SDS011;53168;51.146;17.120;2023-07-29T14:08:40;1.17;;;1.17;;
66371;SDS011;53168;51.146;17.120;2023-07-29T14:11:29;1.16;;;1.16;;
66371;SDS011;53168;51.146;17.120;2023-07-29T14:14:44;1.16;;;1.16;;
66371;SDS011;53168;51.146;17.120;2023-07-29T14:17:20;1.31;;;1.31;;
66371;SDS011;53168;51.146;17.120;2023-07-29T14:20:02;1.15;;;1.15;;
66371;SDS011;53168;51.146;17.120;2023-07-29T14:22:41;1.54;;;1.54;;
66371;SDS011;53168;51.146;17.120;2023-07-29T14:25:16;1.75;;;1.75;;
66371;SDS011;53168;51.146;17.120;2023-07-29T14:27:57;1.69;;;1.69;;
66371;SDS011;53168;51.146;17.120;2023-07-29T14:30:40;1.64;;;1.64;;
66371;SDS011;53168;51.146;17.120;2023-07-29T14:33:18;1.25;;;1.25;;
66371;SDS011;53168;51.146;17.120;2023-07-29T14:36:17;1.44;;;1.44;;
66371;SDS011;53168;51.146;17.120;2023-07-29T14:38:58;1.69;;;1.69;;
66371;SDS011;53168;51.146;17.120;2023-07-29T14:41:43;1.42;;;1.42;;
66371;SDS011;53168;51.146;17.120;2023-07-29T14:44:25;1.40;;;1.40;;
66371;SDS011;53168;51.146;17.120;2023-07-29T14:47:08;1.57;;;1.57;;
66371;SDS011;53168;51.146;17.120;2023-07-29T14:49:45;1.82;;;1.82;;
66371;SDS011;53168;51.146;17.120;2023-07-29T14:52:21;1.63;;;1.63;;
66371;SDS011;53168;51.146;17.120;2023-07-29T14:54:55;1.56;;;1.56;;
66371;SDS011;53168;51.146;17.120;2023-07-29T14:57:30;1.38;;;1.38;;
66371;SDS011;53168;51.146;17.120;2023-07-29T15:03:59;1.40;;;1.40;;
66371;SDS011;53168;51.146;17.120;2023-07-29T15:24:56;1.48;;;1.48;;
66371;SDS011;53168;51.146;17.120;2023-07-29T15:27:31;1.63;;;1.63;;
66371;SDS011;53168;51.146;17.120;2023-07-29T15:30:05;1.54;;;1.54;;
66371;SDS011;53168;51.146;17.120;2023-07-29T15:32:42;1.58;;;1.58;;
66371;SDS011;53168;51.146;17.120;2023-07-29T15:35:21;1.38;;;1.38;;
66371;SDS011;53168;51.146;17.120;2023-07-29T15:37:55;1.56;;;1.56;;
66371;SDS011;53168;51.146;17.120;2023-07-29T15:40:29;1.64;;;1.64;;
66371;SDS011;53168;51.146;17.120;2023-07-29T15:43:03;1.64;;;1.64;;
66371;SDS011;53168;51.146;17.120;2023-07-29T15:45:36;1.55;;;1.55;;
66371;SDS011;53168;51.146;17.120;2023-07-29T15:48:10;1.63;;;1.63;;
66371;SDS011;53168;51.146;17.120;2023-07-29T15:50:48;1.52;;;1.52;;
66371;SDS011;53168;51.146;17.120;2023-07-29T15:53:21;1.59;;;1.59;;
66371;SDS011;53168;51.146;17.120;2023-07-29T15:55:55;1.52;;;1.52;;
66371;SDS011;53168;51.146;17.120;2023-07-29T15:58:30;1.41;;;1.41;;
66371;SDS011;53168;51.146;17.120;2023-07-29T16:01:04;1.54;;;1.54;;
66371;SDS011;53168;51.146;17.120;2023-07-29T16:03:38;1.68;;;1.68;;
66371;SDS011;53168;51.146;17.120;2023-07-29T16:06:15;1.75;;;1.75;;
66371;SDS011;53168;51.146;17.120;2023-07-29T16:08:52;1.51;;;1.51;;
66371;SDS011;53168;51.146;17.120;2023-07-29T16:11:28;1.60;;;1.60;;
66371;SDS011;53168;51.146;17.120;2023-07-29T16:14:02;2.06;;;2.06;;
66371;SDS011;53168;51.146;17.120;2023-07-29T16:16:36;2.27;;;2.27;;
66371;SDS011;53168;51.146;17.120;2023-07-29T16:19:10;2.15;;;2.15;;
66371;SDS011;53168;51.146;17.120;2023-07-29T16:21:54;1.79;;;1.79;;
66371;SDS011;53168;51.146;17.120;2023-07-29T16:24:31;1.60;;;1.60;;
66371;SDS011;53168;51.146;17.120;2023-07-29T16:27:05;1.93;;;1.93;;
66371;SDS011;53168;51.146;17.120;2023-07-29T16:29:40;1.74;;;1.74;;
66371;SDS011;53168;51.146;17.120;2023-07-29T16:32:14;1.65;;;1.65;;
66371;SDS011;53168;51.146;17.120;2023-07-29T16:34:50;1.60;;;1.60;;
66371;SDS011;53168;51.146;17.120;2023-07-29T16:37:26;1.56;;;1.56;;
66371;SDS011;53168;51.146;17.120;2023-07-29T16:40:07;1.59;;;1.59;;
66371;SDS011;53168;51.146;17.120;2023-07-29T16:42:45;1.66;;;1.66;;
66371;SDS011;53168;51.146;17.120;2023-07-29T16:45:24;1.62;;;1.62;;
66371;SDS011;53168;51.146;17.120;2023-07-29T16:47:59;1.63;;;1.63;;
66371;SDS011;53168;51.146;17.120;2023-07-29T16:50:34;1.98;;;1.98;;